Terminal Aerodrome Forecast
Issued by NWS Denver/Boulder, CO

Home | Current Version | Previous Version | Text Only | Print | Product List | Glossary On
Versions: 1 2 3 4 5 6 7 8 9 10 11 12 13 14 15 16 17 18 19 20 21 22 23 24 25 26 27 28 29 30 31 32 33 34 35 36 37 38 39 40 41 42 43 44 45 46 47 48 49 50
000
FTUS45 KBOU 291124
TAFDEN
TAF
KDEN 291124Z 2912/3018 32008KT 5SM BR SCT050 BKN070 OVC100
     FM291230 02012G20KT 5SM BR VCSH SCT025 OVC050
      TEMPO 2913/2915 01012G22KT 3SM -SHSN SCT015 BKN025
     FM291500 01012G22KT 1SM -SN BR BKN006 OVC014
     FM291800 03012KT 3/4SM -SN BR OVC008
      TEMPO 2920/2924 1/2SM SN FZFG OVC004
     FM300100 03010KT 1SM -SN BR BKN005 OVC010
      TEMPO 3001/3004 1/2SM -SN FZFG OVC004
     FM300500 04008KT 3SM -SN BR SCT004 OVC008
     FM301200 08008KT 3SM -SN BR SCT004 OVC008=

USA.gov is the U.S. government's official web portal to all federal, state and local government web resources and services.